sensor_id;sensor_type;location;lat;lon;timestamp;P1;durP1;ratioP1;P2;durP2;ratioP2
56429;SDS011;42332;52.136;20.666;2022-10-16T00:00:34;16.50;;;7.75;;
56429;SDS011;42332;52.136;20.666;2022-10-16T00:03:00;22.55;;;7.90;;
56429;SDS011;42332;52.136;20.666;2022-10-16T00:05:26;19.00;;;8.05;;
56429;SDS011;42332;52.136;20.666;2022-10-16T00:07:52;13.57;;;6.75;;
56429;SDS011;42332;52.136;20.666;2022-10-16T00:10:17;13.85;;;7.40;;
56429;SDS011;42332;52.136;20.666;2022-10-16T00:12:43;16.45;;;7.57;;
56429;SDS011;42332;52.136;20.666;2022-10-16T00:15:08;18.23;;;7.75;;
56429;SDS011;42332;52.136;20.666;2022-10-16T00:17:34;16.35;;;8.00;;
56429;SDS011;42332;52.136;20.666;2022-10-16T00:19:59;13.68;;;7.63;;
56429;SDS011;42332;52.136;20.666;2022-10-16T00:22:25;21.10;;;7.80;;
56429;SDS011;42332;52.136;20.666;2022-10-16T00:24:50;16.30;;;7.63;;
56429;SDS011;42332;52.136;20.666;2022-10-16T00:27:16;14.23;;;7.88;;
56429;SDS011;42332;52.136;20.666;2022-10-16T00:29:41;16.98;;;7.35;;
56429;SDS011;42332;52.136;20.666;2022-10-16T00:32:07;17.73;;;7.90;;
56429;SDS011;42332;52.136;20.666;2022-10-16T00:34:33;18.45;;;8.25;;
56429;SDS011;42332;52.136;20.666;2022-10-16T00:36:58;13.50;;;6.70;;
56429;SDS011;42332;52.136;20.666;2022-10-16T00:39:23;15.70;;;7.68;;
56429;SDS011;42332;52.136;20.666;2022-10-16T00:41:49;19.65;;;7.38;;
56429;SDS011;42332;52.136;20.666;2022-10-16T00:47:19;17.00;;;7.10;;
56429;SDS011;42332;52.136;20.666;2022-10-16T00:49:58;16.33;;;8.05;;
56429;SDS011;42332;52.136;20.666;2022-10-16T00:52:26;17.88;;;7.93;;
56429;SDS011;42332;52.136;20.666;2022-10-16T00:54:52;16.02;;;7.97;;
56429;SDS011;42332;52.136;20.666;2022-10-16T00:57:18;19.35;;;8.15;;
56429;SDS011;42332;52.136;20.666;2022-10-16T00:59:44;16.40;;;7.57;;
56429;SDS011;42332;52.136;20.666;2022-10-16T01:02:11;18.13;;;8.60;;
56429;SDS011;42332;52.136;20.666;2022-10-16T01:04:43;17.80;;;7.43;;
56429;SDS011;42332;52.136;20.666;2022-10-16T01:07:16;22.63;;;8.88;;
56429;SDS011;42332;52.136;20.666;2022-10-16T01:09:57;20.30;;;8.73;;
56429;SDS011;42332;52.136;20.666;2022-10-16T01:12:33;18.70;;;8.52;;
56429;SDS011;42332;52.136;20.666;2022-10-16T01:20:29;20.52;;;9.07;;
56429;SDS011;42332;52.136;20.666;2022-10-16T01:23:15;23.70;;;9.40;;
56429;SDS011;42332;52.136;20.666;2022-10-16T01:28:22;20.48;;;9.30;;
56429;SDS011;42332;52.136;20.666;2022-10-16T01:30:50;18.95;;;9.10;;
56429;SDS011;42332;52.136;20.666;2022-10-16T01:33:19;19.77;;;8.80;;
56429;SDS011;42332;52.136;20.666;2022-10-16T01:35:47;18.15;;;9.57;;
56429;SDS011;42332;52.136;20.666;2022-10-16T01:38:21;24.80;;;10.48;;
56429;SDS011;42332;52.136;20.666;2022-10-16T01:40:55;21.70;;;8.43;;
56429;SDS011;42332;52.136;20.666;2022-10-16T01:43:26;35.58;;;9.50;;
56429;SDS011;42332;52.136;20.666;2022-10-16T01:45:58;19.52;;;9.00;;
56429;SDS011;42332;52.136;20.666;2022-10-16T01:48:24;24.90;;;10.20;;
56429;SDS011;42332;52.136;20.666;2022-10-16T01:50:57;18.92;;;8.88;;
56429;SDS011;42332;52.136;20.666;2022-10-16T01:53:31;21.85;;;9.27;;
56429;SDS011;42332;52.136;20.666;2022-10-16T01:55:57;18.83;;;9.15;;
56429;SDS011;42332;52.136;20.666;2022-10-16T01:58:23;23.15;;;9.85;;
56429;SDS011;42332;52.136;20.666;2022-10-16T02:00:50;22.55;;;9.57;;
56429;SDS011;42332;52.136;20.666;2022-10-16T02:03:18;19.42;;;9.18;;
56429;SDS011;42332;52.136;20.666;2022-10-16T02:05:53;26.85;;;10.00;;
56429;SDS011;42332;52.136;20.666;2022-10-16T02:08:21;22.23;;;10.20;;
56429;SDS011;42332;52.136;20.666;2022-10-16T02:10:48;20.15;;;9.70;;
56429;SDS011;42332;52.136;20.666;2022-10-16T02:13:15;26.42;;;9.90;;
56429;SDS011;42332;52.136;20.666;2022-10-16T02:15:47;20.15;;;9.45;;
56429;SDS011;42332;52.136;20.666;2022-10-16T02:18:12;20.85;;;9.15;;
56429;SDS011;42332;52.136;20.666;2022-10-16T02:20:50;21.88;;;9.85;;
56429;SDS011;42332;52.136;20.666;2022-10-16T02:23:19;20.20;;;10.02;;
56429;SDS011;42332;52.136;20.666;2022-10-16T02:26:00;19.13;;;10.73;;
56429;SDS011;42332;52.136;20.666;2022-10-16T02:28:30;21.10;;;9.77;;
56429;SDS011;42332;52.136;20.666;2022-10-16T02:31:01;20.50;;;9.35;;
56429;SDS011;42332;52.136;20.666;2022-10-16T02:33:28;23.05;;;9.95;;
56429;SDS011;42332;52.136;20.666;2022-10-16T02:35:54;22.40;;;9.50;;
56429;SDS011;42332;52.136;20.666;2022-10-16T02:38:21;23.17;;;9.52;;
56429;SDS011;42332;52.136;20.666;2022-10-16T02:40:47;21.05;;;10.52;;
56429;SDS011;42332;52.136;20.666;2022-10-16T02:43:13;16.65;;;8.68;;
56429;SDS011;42332;52.136;20.666;2022-10-16T02:45:38;23.50;;;10.00;;
56429;SDS011;42332;52.136;20.666;2022-10-16T02:48:04;21.42;;;9.65;;
56429;SDS011;42332;52.136;20.666;2022-10-16T02:50:30;21.55;;;9.25;;
56429;SDS011;42332;52.136;20.666;2022-10-16T02:52:55;22.73;;;10.02;;
56429;SDS011;42332;52.136;20.666;2022-10-16T02:55:20;19.48;;;9.48;;
56429;SDS011;42332;52.136;20.666;2022-10-16T02:57:46;20.45;;;9.40;;
56429;SDS011;42332;52.136;20.666;2022-10-16T03:00:12;25.45;;;9.82;;
56429;SDS011;42332;52.136;20.666;2022-10-16T03:02:39;22.92;;;9.90;;
56429;SDS011;42332;52.136;20.666;2022-10-16T03:05:05;21.83;;;10.05;;
56429;SDS011;42332;52.136;20.666;2022-10-16T03:07:31;20.90;;;9.63;;
56429;SDS011;42332;52.136;20.666;2022-10-16T03:09:56;19.10;;;9.73;;
56429;SDS011;42332;52.136;20.666;2022-10-16T03:12:22;23.13;;;9.25;;
56429;SDS011;42332;52.136;20.666;2022-10-16T03:14:47;20.35;;;9.57;;
56429;SDS011;42332;52.136;20.666;2022-10-16T03:17:13;19.80;;;9.88;;
56429;SDS011;42332;52.136;20.666;2022-10-16T03:19:38;26.55;;;10.45;;
56429;SDS011;42332;52.136;20.666;2022-10-16T03:22:04;19.25;;;9.32;;
56429;SDS011;42332;52.136;20.666;2022-10-16T03:24:29;21.98;;;9.75;;
56429;SDS011;42332;52.136;20.666;2022-10-16T03:26:54;24.73;;;10.27;;
56429;SDS011;42332;52.136;20.666;2022-10-16T03:29:20;19.95;;;9.10;;
56429;SDS011;42332;52.136;20.666;2022-10-16T03:31:45;22.75;;;9.45;;
56429;SDS011;42332;52.136;20.666;2022-10-16T03:34:10;15.82;;;8.50;;
56429;SDS011;42332;52.136;20.666;2022-10-16T03:36:36;19.52;;;10.02;;
56429;SDS011;42332;52.136;20.666;2022-10-16T03:39:01;24.35;;;10.10;;
56429;SDS011;42332;52.136;20.666;2022-10-16T03:41:27;20.98;;;10.02;;
56429;SDS011;42332;52.136;20.666;2022-10-16T03:43:52;20.35;;;9.43;;
56429;SDS011;42332;52.136;20.666;2022-10-16T03:46:18;22.90;;;10.02;;
56429;SDS011;42332;52.136;20.666;2022-10-16T03:48:43;20.67;;;9.77;;
56429;SDS011;42332;52.136;20.666;2022-10-16T03:51:08;22.13;;;9.98;;
56429;SDS011;42332;52.136;20.666;2022-10-16T03:53:34;20.33;;;9.77;;
56429;SDS011;42332;52.136;20.666;2022-10-16T03:55:59;22.60;;;9.68;;
56429;SDS011;42332;52.136;20.666;2022-10-16T03:58:25;21.83;;;9.20;;
56429;SDS011;42332;52.136;20.666;2022-10-16T04:00:50;23.02;;;10.38;;
56429;SDS011;42332;52.136;20.666;2022-10-16T04:03:16;23.60;;;9.90;;
56429;SDS011;42332;52.136;20.666;2022-10-16T04:05:42;27.10;;;9.90;;
56429;SDS011;42332;52.136;20.666;2022-10-16T04:08:07;18.77;;;10.60;;
56429;SDS011;42332;52.136;20.666;2022-10-16T04:10:33;21.48;;;10.70;;
56429;SDS011;42332;52.136;20.666;2022-10-16T04:12:58;20.75;;;9.88;;
56429;SDS011;42332;52.136;20.666;2022-10-16T04:15:24;19.85;;;10.13;;
56429;SDS011;42332;52.136;20.666;2022-10-16T04:17:50;23.45;;;9.98;;
56429;SDS011;42332;52.136;20.666;2022-10-16T04:20:15;20.52;;;9.80;;
56429;SDS011;42332;52.136;20.666;2022-10-16T04:22:41;22.10;;;10.63;;
56429;SDS011;42332;52.136;20.666;2022-10-16T04:25:06;20.25;;;10.57;;
56429;SDS011;42332;52.136;20.666;2022-10-16T04:27:32;24.90;;;10.02;;
56429;SDS011;42332;52.136;20.666;2022-10-16T04:29:58;23.40;;;10.57;;
56429;SDS011;42332;52.136;20.666;2022-10-16T04:32:24;23.20;;;10.07;;
56429;SDS011;42332;52.136;20.666;2022-10-16T04:34:49;27.30;;;10.27;;
56429;SDS011;42332;52.136;20.666;2022-10-16T04:37:15;20.30;;;8.85;;
56429;SDS011;42332;52.136;20.666;2022-10-16T04:39:40;25.17;;;10.52;;
56429;SDS011;42332;52.136;20.666;2022-10-16T04:42:05;20.63;;;9.95;;
56429;SDS011;42332;52.136;20.666;2022-10-16T04:44:31;21.17;;;9.45;;
56429;SDS011;42332;52.136;20.666;2022-10-16T04:46:56;24.73;;;9.80;;
56429;SDS011;42332;52.136;20.666;2022-10-16T04:49:21;20.35;;;10.60;;
56429;SDS011;42332;52.136;20.666;2022-10-16T04:51:47;25.42;;;11.05;;
56429;SDS011;42332;52.136;20.666;2022-10-16T04:54:12;26.08;;;11.38;;
56429;SDS011;42332;52.136;20.666;2022-10-16T04:56:38;25.20;;;11.95;;
56429;SDS011;42332;52.136;20.666;2022-10-16T04:59:11;22.15;;;10.75;;
56429;SDS011;42332;52.136;20.666;2022-10-16T05:01:36;23.38;;;10.90;;
56429;SDS011;42332;52.136;20.666;2022-10-16T05:04:02;25.85;;;11.43;;
56429;SDS011;42332;52.136;20.666;2022-10-16T05:06:27;26.58;;;11.63;;
56429;SDS011;42332;52.136;20.666;2022-10-16T05:08:52;32.08;;;12.13;;
56429;SDS011;42332;52.136;20.666;2022-10-16T05:11:18;27.38;;;12.27;;
56429;SDS011;42332;52.136;20.666;2022-10-16T05:13:43;23.73;;;11.65;;
56429;SDS011;42332;52.136;20.666;2022-10-16T05:16:08;23.52;;;11.13;;
56429;SDS011;42332;52.136;20.666;2022-10-16T05:18:34;23.60;;;11.35;;
56429;SDS011;42332;52.136;20.666;2022-10-16T05:20:59;25.63;;;11.68;;
56429;SDS011;42332;52.136;20.666;2022-10-16T05:23:24;30.00;;;11.98;;
56429;SDS011;42332;52.136;20.666;2022-10-16T05:25:53;25.50;;;11.52;;
56429;SDS011;42332;52.136;20.666;2022-10-16T05:28:20;25.15;;;12.05;;
56429;SDS011;42332;52.136;20.666;2022-10-16T05:30:45;24.58;;;10.38;;
56429;SDS011;42332;52.136;20.666;2022-10-16T05:33:10;31.02;;;12.32;;
56429;SDS011;42332;52.136;20.666;2022-10-16T05:35:36;33.15;;;13.70;;
56429;SDS011;42332;52.136;20.666;2022-10-16T05:38:01;31.85;;;14.45;;
56429;SDS011;42332;52.136;20.666;2022-10-16T05:40:27;31.38;;;14.55;;
56429;SDS011;42332;52.136;20.666;2022-10-16T05:42:54;24.67;;;12.70;;
56429;SDS011;42332;52.136;20.666;2022-10-16T05:45:20;26.17;;;12.95;;
56429;SDS011;42332;52.136;20.666;2022-10-16T05:47:45;29.08;;;14.27;;
56429;SDS011;42332;52.136;20.666;2022-10-16T05:50:11;27.70;;;13.70;;
56429;SDS011;42332;52.136;20.666;2022-10-16T05:52:36;26.05;;;12.80;;
56429;SDS011;42332;52.136;20.666;2022-10-16T05:55:02;26.23;;;12.32;;
56429;SDS011;42332;52.136;20.666;2022-10-16T05:57:27;26.58;;;13.10;;
56429;SDS011;42332;52.136;20.666;2022-10-16T05:59:53;26.73;;;11.82;;
56429;SDS011;42332;52.136;20.666;2022-10-16T06:02:18;26.70;;;12.70;;
56429;SDS011;42332;52.136;20.666;2022-10-16T06:04:44;26.85;;;12.57;;
56429;SDS011;42332;52.136;20.666;2022-10-16T06:07:09;23.88;;;11.55;;
56429;SDS011;42332;52.136;20.666;2022-10-16T06:09:34;31.02;;;11.93;;
56429;SDS011;42332;52.136;20.666;2022-10-16T06:12:00;26.27;;;12.23;;
56429;SDS011;42332;52.136;20.666;2022-10-16T06:14:25;24.23;;;11.45;;
56429;SDS011;42332;52.136;20.666;2022-10-16T06:16:50;30.15;;;11.75;;
56429;SDS011;42332;52.136;20.666;2022-10-16T06:19:16;22.50;;;10.05;;
56429;SDS011;42332;52.136;20.666;2022-10-16T06:21:42;30.92;;;11.57;;
56429;SDS011;42332;52.136;20.666;2022-10-16T06:24:08;21.95;;;10.40;;
56429;SDS011;42332;52.136;20.666;2022-10-16T06:26:33;22.30;;;10.55;;
56429;SDS011;42332;52.136;20.666;2022-10-16T06:28:59;24.55;;;10.93;;
56429;SDS011;42332;52.136;20.666;2022-10-16T06:31:24;20.67;;;10.55;;
56429;SDS011;42332;52.136;20.666;2022-10-16T06:33:52;19.08;;;9.77;;
56429;SDS011;42332;52.136;20.666;2022-10-16T06:36:18;22.10;;;10.65;;
56429;SDS011;42332;52.136;20.666;2022-10-16T06:38:44;24.38;;;10.60;;
56429;SDS011;42332;52.136;20.666;2022-10-16T06:41:14;19.73;;;10.52;;
56429;SDS011;42332;52.136;20.666;2022-10-16T06:43:41;26.35;;;10.43;;
56429;SDS011;42332;52.136;20.666;2022-10-16T06:46:07;21.35;;;11.27;;
56429;SDS011;42332;52.136;20.666;2022-10-16T06:48:34;24.30;;;10.25;;
56429;SDS011;42332;52.136;20.666;2022-10-16T06:51:10;18.77;;;9.80;;
56429;SDS011;42332;52.136;20.666;2022-10-16T06:53:38;19.70;;;9.65;;
56429;SDS011;42332;52.136;20.666;2022-10-16T06:56:12;24.48;;;11.05;;
56429;SDS011;42332;52.136;20.666;2022-10-16T06:58:39;19.88;;;9.68;;
56429;SDS011;42332;52.136;20.666;2022-10-16T07:01:05;21.15;;;10.25;;
56429;SDS011;42332;52.136;20.666;2022-10-16T07:03:31;24.52;;;9.93;;
56429;SDS011;42332;52.136;20.666;2022-10-16T07:05:56;22.33;;;10.15;;
56429;SDS011;42332;52.136;20.666;2022-10-16T07:08:22;18.30;;;9.80;;
56429;SDS011;42332;52.136;20.666;2022-10-16T07:10:47;25.13;;;9.88;;
56429;SDS011;42332;52.136;20.666;2022-10-16T07:13:13;24.48;;;10.40;;
56429;SDS011;42332;52.136;20.666;2022-10-16T07:15:39;21.55;;;9.60;;
56429;SDS011;42332;52.136;20.666;2022-10-16T07:18:05;16.98;;;8.98;;
56429;SDS011;42332;52.136;20.666;2022-10-16T07:20:30;20.85;;;10.15;;
56429;SDS011;42332;52.136;20.666;2022-10-16T07:22:56;22.00;;;10.07;;
56429;SDS011;42332;52.136;20.666;2022-10-16T07:25:21;21.98;;;9.60;;
56429;SDS011;42332;52.136;20.666;2022-10-16T07:27:46;21.15;;;9.75;;
56429;SDS011;42332;52.136;20.666;2022-10-16T07:30:12;19.13;;;9.43;;
56429;SDS011;42332;52.136;20.666;2022-10-16T07:32:37;17.38;;;9.23;;
56429;SDS011;42332;52.136;20.666;2022-10-16T07:35:02;22.10;;;9.70;;
56429;SDS011;42332;52.136;20.666;2022-10-16T07:37:28;18.25;;;9.63;;
56429;SDS011;42332;52.136;20.666;2022-10-16T07:39:53;24.27;;;9.93;;
56429;SDS011;42332;52.136;20.666;2022-10-16T07:42:19;18.48;;;9.77;;
56429;SDS011;42332;52.136;20.666;2022-10-16T07:44:45;18.92;;;8.93;;
56429;SDS011;42332;52.136;20.666;2022-10-16T07:47:10;23.70;;;9.57;;
56429;SDS011;42332;52.136;20.666;2022-10-16T07:49:35;19.48;;;8.43;;
56429;SDS011;42332;52.136;20.666;2022-10-16T07:52:01;19.23;;;9.40;;
56429;SDS011;42332;52.136;20.666;2022-10-16T07:54:26;17.92;;;9.07;;
56429;SDS011;42332;52.136;20.666;2022-10-16T07:56:51;23.73;;;9.55;;
56429;SDS011;42332;52.136;20.666;2022-10-16T07:59:17;16.75;;;7.75;;
56429;SDS011;42332;52.136;20.666;2022-10-16T08:01:42;18.73;;;8.60;;
56429;SDS011;42332;52.136;20.666;2022-10-16T08:04:08;17.67;;;8.45;;
56429;SDS011;42332;52.136;20.666;2022-10-16T08:06:37;16.20;;;7.80;;
56429;SDS011;42332;52.136;20.666;2022-10-16T08:09:04;15.05;;;7.43;;
56429;SDS011;42332;52.136;20.666;2022-10-16T08:11:29;16.10;;;7.55;;
56429;SDS011;42332;52.136;20.666;2022-10-16T08:13:55;18.17;;;8.98;;
56429;SDS011;42332;52.136;20.666;2022-10-16T08:16:20;18.08;;;8.50;;
56429;SDS011;42332;52.136;20.666;2022-10-16T08:18:46;16.23;;;6.30;;
56429;SDS011;42332;52.136;20.666;2022-10-16T08:21:12;15.45;;;7.82;;
56429;SDS011;42332;52.136;20.666;2022-10-16T08:23:39;16.23;;;7.93;;
56429;SDS011;42332;52.136;20.666;2022-10-16T08:26:05;17.60;;;8.32;;
56429;SDS011;42332;52.136;20.666;2022-10-16T08:28:31;16.73;;;8.63;;
56429;SDS011;42332;52.136;20.666;2022-10-16T08:31:04;16.77;;;7.63;;
56429;SDS011;42332;52.136;20.666;2022-10-16T08:33:30;17.30;;;7.22;;
56429;SDS011;42332;52.136;20.666;2022-10-16T08:35:56;16.15;;;7.35;;
56429;SDS011;42332;52.136;20.666;2022-10-16T08:38:21;18.65;;;8.43;;
56429;SDS011;42332;52.136;20.666;2022-10-16T08:40:46;16.35;;;6.88;;
56429;SDS011;42332;52.136;20.666;2022-10-16T08:43:31;15.30;;;7.88;;
56429;SDS011;42332;52.136;20.666;2022-10-16T08:48:54;14.95;;;7.80;;
56429;SDS011;42332;52.136;20.666;2022-10-16T08:51:26;17.05;;;7.05;;
56429;SDS011;42332;52.136;20.666;2022-10-16T08:53:54;15.07;;;7.00;;
56429;SDS011;42332;52.136;20.666;2022-10-16T08:56:21;16.70;;;7.50;;
56429;SDS011;42332;52.136;20.666;2022-10-16T08:58:47;15.57;;;8.02;;
56429;SDS011;42332;52.136;20.666;2022-10-16T09:01:14;20.30;;;7.75;;
56429;SDS011;42332;52.136;20.666;2022-10-16T09:11:18;16.42;;;7.63;;
56429;SDS011;42332;52.136;20.666;2022-10-16T09:16:33;15.70;;;8.27;;
56429;SDS011;42332;52.136;20.666;2022-10-16T09:21:36;19.13;;;8.38;;
56429;SDS011;42332;52.136;20.666;2022-10-16T09:24:12;20.95;;;8.07;;
56429;SDS011;42332;52.136;20.666;2022-10-16T09:29:04;16.93;;;7.83;;
56429;SDS011;42332;52.136;20.666;2022-10-16T09:31:30;19.40;;;8.52;;
56429;SDS011;42332;52.136;20.666;2022-10-16T09:33:57;19.80;;;8.43;;
56429;SDS011;42332;52.136;20.666;2022-10-16T09:36:23;21.50;;;8.57;;
56429;SDS011;42332;52.136;20.666;2022-10-16T09:39:00;16.83;;;8.52;;
56429;SDS011;42332;52.136;20.666;2022-10-16T09:41:27;16.33;;;8.23;;
56429;SDS011;42332;52.136;20.666;2022-10-16T09:48:48;22.23;;;8.30;;
56429;SDS011;42332;52.136;20.666;2022-10-16T09:53:53;19.83;;;9.30;;
56429;SDS011;42332;52.136;20.666;2022-10-16T09:56:22;20.20;;;8.95;;
56429;SDS011;42332;52.136;20.666;2022-10-16T09:58:58;20.65;;;8.50;;
56429;SDS011;42332;52.136;20.666;2022-10-16T10:01:38;16.30;;;8.38;;
56429;SDS011;42332;52.136;20.666;2022-10-16T10:04:15;16.80;;;8.40;;
56429;SDS011;42332;52.136;20.666;2022-10-16T10:06:45;14.48;;;7.93;;
56429;SDS011;42332;52.136;20.666;2022-10-16T10:09:24;15.50;;;7.50;;
56429;SDS011;42332;52.136;20.666;2022-10-16T10:12:01;18.00;;;8.55;;
56429;SDS011;42332;52.136;20.666;2022-10-16T10:17:01;16.58;;;8.40;;
56429;SDS011;42332;52.136;20.666;2022-10-16T10:24:59;14.98;;;8.20;;
56429;SDS011;42332;52.136;20.666;2022-10-16T10:27:29;18.10;;;7.77;;
56429;SDS011;42332;52.136;20.666;2022-10-16T10:37:55;15.23;;;8.10;;
56429;SDS011;42332;52.136;20.666;2022-10-16T10:43:13;16.50;;;8.43;;
56429;SDS011;42332;52.136;20.666;2022-10-16T10:45:55;14.48;;;7.75;;
56429;SDS011;42332;52.136;20.666;2022-10-16T10:51:15;14.20;;;7.70;;
56429;SDS011;42332;52.136;20.666;2022-10-16T10:54:02;17.10;;;8.05;;
56429;SDS011;42332;52.136;20.666;2022-10-16T10:59:31;16.40;;;7.95;;
56429;SDS011;42332;52.136;20.666;2022-10-16T11:07:56;13.70;;;6.40;;
56429;SDS011;42332;52.136;20.666;2022-10-16T11:16:07;17.80;;;6.80;;
56429;SDS011;42332;52.136;20.666;2022-10-16T11:21:11;13.45;;;6.75;;
56429;SDS011;42332;52.136;20.666;2022-10-16T11:26:19;12.27;;;6.38;;
56429;SDS011;42332;52.136;20.666;2022-10-16T11:28:48;17.13;;;6.72;;
56429;SDS011;42332;52.136;20.666;2022-10-16T11:33:41;13.20;;;6.68;;
56429;SDS011;42332;52.136;20.666;2022-10-16T11:44:09;12.75;;;6.57;;
56429;SDS011;42332;52.136;20.666;2022-10-16T11:46:39;19.08;;;6.45;;
56429;SDS011;42332;52.136;20.666;2022-10-16T11:51:51;14.77;;;6.90;;
56429;SDS011;42332;52.136;20.666;2022-10-16T11:56:59;12.35;;;6.18;;
56429;SDS011;42332;52.136;20.666;2022-10-16T11:59:40;14.23;;;7.00;;
56429;SDS011;42332;52.136;20.666;2022-10-16T12:04:51;16.52;;;7.00;;
56429;SDS011;42332;52.136;20.666;2022-10-16T12:07:24;13.43;;;6.38;;
56429;SDS011;42332;52.136;20.666;2022-10-16T12:09:53;13.73;;;6.75;;
56429;SDS011;42332;52.136;20.666;2022-10-16T12:14:59;14.05;;;6.85;;
56429;SDS011;42332;52.136;20.666;2022-10-16T12:17:35;13.48;;;6.72;;
56429;SDS011;42332;52.136;20.666;2022-10-16T12:20:18;17.02;;;7.00;;
56429;SDS011;42332;52.136;20.666;2022-10-16T12:22:56;15.18;;;7.15;;
56429;SDS011;42332;52.136;20.666;2022-10-16T12:30:52;17.92;;;7.45;;
56429;SDS011;42332;52.136;20.666;2022-10-16T12:33:23;16.15;;;7.63;;
56429;SDS011;42332;52.136;20.666;2022-10-16T12:35:50;18.13;;;7.72;;
56429;SDS011;42332;52.136;20.666;2022-10-16T12:41:23;15.10;;;7.18;;
56429;SDS011;42332;52.136;20.666;2022-10-16T12:43:56;13.85;;;6.90;;
56429;SDS011;42332;52.136;20.666;2022-10-16T12:49:04;17.23;;;6.78;;
56429;SDS011;42332;52.136;20.666;2022-10-16T12:51:50;13.63;;;6.50;;
56429;SDS011;42332;52.136;20.666;2022-10-16T12:54:20;11.68;;;5.68;;
56429;SDS011;42332;52.136;20.666;2022-10-16T13:05:12;9.93;;;4.93;;
56429;SDS011;42332;52.136;20.666;2022-10-16T13:11:18;9.70;;;5.15;;
56429;SDS011;42332;52.136;20.666;2022-10-16T13:25:46;13.95;;;6.57;;
56429;SDS011;42332;52.136;20.666;2022-10-16T13:28:17;13.98;;;6.10;;
56429;SDS011;42332;52.136;20.666;2022-10-16T13:30:53;12.30;;;5.63;;
56429;SDS011;42332;52.136;20.666;2022-10-16T13:33:21;11.27;;;6.13;;
56429;SDS011;42332;52.136;20.666;2022-10-16T13:35:54;11.07;;;6.13;;
56429;SDS011;42332;52.136;20.666;2022-10-16T13:38:21;12.48;;;6.20;;
56429;SDS011;42332;52.136;20.666;2022-10-16T13:46:07;13.13;;;5.53;;
56429;SDS011;42332;52.136;20.666;2022-10-16T13:48:37;10.88;;;5.55;;
56429;SDS011;42332;52.136;20.666;2022-10-16T13:51:10;10.80;;;5.20;;
56429;SDS011;42332;52.136;20.666;2022-10-16T13:53:38;12.07;;;5.22;;
56429;SDS011;42332;52.136;20.666;2022-10-16T13:56:05;9.88;;;5.25;;
56429;SDS011;42332;52.136;20.666;2022-10-16T13:58:32;7.68;;;4.07;;
56429;SDS011;42332;52.136;20.666;2022-10-16T14:00:59;9.77;;;4.65;;
56429;SDS011;42332;52.136;20.666;2022-10-16T14:03:46;9.48;;;5.35;;
56429;SDS011;42332;52.136;20.666;2022-10-16T14:06:16;9.70;;;5.07;;
56429;SDS011;42332;52.136;20.666;2022-10-16T14:08:44;10.63;;;4.35;;
56429;SDS011;42332;52.136;20.666;2022-10-16T14:11:11;13.30;;;5.20;;
56429;SDS011;42332;52.136;20.666;2022-10-16T14:13:43;11.00;;;5.05;;
56429;SDS011;42332;52.136;20.666;2022-10-16T14:16:10;12.88;;;4.68;;
56429;SDS011;42332;52.136;20.666;2022-10-16T14:18:40;10.35;;;4.72;;
56429;SDS011;42332;52.136;20.666;2022-10-16T14:21:06;10.82;;;4.88;;
56429;SDS011;42332;52.136;20.666;2022-10-16T14:23:36;12.82;;;5.13;;
56429;SDS011;42332;52.136;20.666;2022-10-16T14:26:07;13.32;;;5.90;;
56429;SDS011;42332;52.136;20.666;2022-10-16T14:28:38;11.45;;;6.13;;
56429;SDS011;42332;52.136;20.666;2022-10-16T14:33:44;11.07;;;5.50;;
56429;SDS011;42332;52.136;20.666;2022-10-16T14:38:39;10.35;;;4.88;;
56429;SDS011;42332;52.136;20.666;2022-10-16T14:41:08;11.57;;;5.00;;
56429;SDS011;42332;52.136;20.666;2022-10-16T14:43:38;11.93;;;6.32;;
56429;SDS011;42332;52.136;20.666;2022-10-16T14:46:12;9.73;;;5.03;;
56429;SDS011;42332;52.136;20.666;2022-10-16T14:48:42;10.45;;;4.93;;
56429;SDS011;42332;52.136;20.666;2022-10-16T14:51:11;13.07;;;5.50;;
56429;SDS011;42332;52.136;20.666;2022-10-16T14:53:43;13.70;;;6.05;;
56429;SDS011;42332;52.136;20.666;2022-10-16T14:56:14;9.90;;;5.35;;
56429;SDS011;42332;52.136;20.666;2022-10-16T14:58:42;11.05;;;4.70;;
56429;SDS011;42332;52.136;20.666;2022-10-16T15:01:08;9.98;;;5.03;;
56429;SDS011;42332;52.136;20.666;2022-10-16T15:03:35;10.88;;;4.97;;
56429;SDS011;42332;52.136;20.666;2022-10-16T15:06:01;14.05;;;5.60;;
56429;SDS011;42332;52.136;20.666;2022-10-16T15:08:26;12.32;;;5.13;;
56429;SDS011;42332;52.136;20.666;2022-10-16T15:10:51;14.25;;;5.45;;
56429;SDS011;42332;52.136;20.666;2022-10-16T15:13:17;14.20;;;5.88;;
56429;SDS011;42332;52.136;20.666;2022-10-16T15:15:44;14.25;;;5.97;;
56429;SDS011;42332;52.136;20.666;2022-10-16T15:18:10;14.88;;;5.63;;
56429;SDS011;42332;52.136;20.666;2022-10-16T15:20:36;11.43;;;6.00;;
56429;SDS011;42332;52.136;20.666;2022-10-16T15:23:04;15.63;;;6.85;;
56429;SDS011;42332;52.136;20.666;2022-10-16T15:25:36;18.55;;;7.50;;
56429;SDS011;42332;52.136;20.666;2022-10-16T15:28:04;16.73;;;7.80;;
56429;SDS011;42332;52.136;20.666;2022-10-16T15:30:30;16.75;;;8.10;;
56429;SDS011;42332;52.136;20.666;2022-10-16T15:32:56;16.55;;;8.50;;
56429;SDS011;42332;52.136;20.666;2022-10-16T15:35:21;17.20;;;8.27;;
56429;SDS011;42332;52.136;20.666;2022-10-16T15:37:47;13.98;;;7.80;;
56429;SDS011;42332;52.136;20.666;2022-10-16T15:40:13;20.55;;;9.25;;
56429;SDS011;42332;52.136;20.666;2022-10-16T15:42:38;20.75;;;9.80;;
56429;SDS011;42332;52.136;20.666;2022-10-16T15:45:04;24.23;;;10.57;;
56429;SDS011;42332;52.136;20.666;2022-10-16T15:47:31;22.67;;;10.93;;
56429;SDS011;42332;52.136;20.666;2022-10-16T15:49:56;23.80;;;11.25;;
56429;SDS011;42332;52.136;20.666;2022-10-16T15:52:21;34.10;;;15.80;;
56429;SDS011;42332;52.136;20.666;2022-10-16T15:54:47;34.67;;;14.70;;
56429;SDS011;42332;52.136;20.666;2022-10-16T15:57:12;31.05;;;13.55;;
56429;SDS011;42332;52.136;20.666;2022-10-16T15:59:38;23.15;;;11.15;;
56429;SDS011;42332;52.136;20.666;2022-10-16T16:02:03;26.08;;;11.38;;
56429;SDS011;42332;52.136;20.666;2022-10-16T16:04:31;29.60;;;11.52;;
56429;SDS011;42332;52.136;20.666;2022-10-16T16:06:57;40.53;;;21.42;;
56429;SDS011;42332;52.136;20.666;2022-10-16T16:09:22;37.10;;;18.45;;
56429;SDS011;42332;52.136;20.666;2022-10-16T16:11:48;38.60;;;16.42;;
56429;SDS011;42332;52.136;20.666;2022-10-16T16:14:14;26.25;;;13.80;;
56429;SDS011;42332;52.136;20.666;2022-10-16T16:16:40;21.30;;;10.95;;
56429;SDS011;42332;52.136;20.666;2022-10-16T16:19:06;18.98;;;10.18;;
56429;SDS011;42332;52.136;20.666;2022-10-16T16:21:32;21.30;;;8.63;;
56429;SDS011;42332;52.136;20.666;2022-10-16T16:23:58;18.25;;;8.82;;
56429;SDS011;42332;52.136;20.666;2022-10-16T16:26:25;16.95;;;8.70;;
56429;SDS011;42332;52.136;20.666;2022-10-16T16:28:58;17.52;;;8.85;;
56429;SDS011;42332;52.136;20.666;2022-10-16T16:31:24;22.05;;;10.57;;
56429;SDS011;42332;52.136;20.666;2022-10-16T16:33:51;20.10;;;10.07;;
56429;SDS011;42332;52.136;20.666;2022-10-16T16:36:16;19.35;;;10.75;;
56429;SDS011;42332;52.136;20.666;2022-10-16T16:38:43;24.45;;;10.45;;
56429;SDS011;42332;52.136;20.666;2022-10-16T16:41:15;25.27;;;11.95;;
56429;SDS011;42332;52.136;20.666;2022-10-16T16:43:42;26.95;;;11.32;;
56429;SDS011;42332;52.136;20.666;2022-10-16T16:46:07;24.80;;;12.35;;